sensor_id;sensor_type;location;lat;lon;timestamp;noise_LAeq;noise_LA_min;noise_LA_max;noise_LA01;noise_LA95
77729;Laerm;66894;51.570;7.000;2023-03-01T00:01:17;43.05;39.19;47.29;;
77729;Laerm;66894;51.570;7.000;2023-03-01T00:03:44;44.03;40.78;48.43;;
77729;Laerm;66894;51.570;7.000;2023-03-01T00:06:11;44.18;40.56;49.93;;
77729;Laerm;66894;51.570;7.000;2023-03-01T00:08:37;42.56;38.13;47.79;;
77729;Laerm;66894;51.570;7.000;2023-03-01T00:11:20;43.42;39.81;47.04;;
77729;Laerm;66894;51.570;7.000;2023-03-01T00:13:51;44.12;39.45;48.26;;
77729;Laerm;66894;51.570;7.000;2023-03-01T00:16:25;43.21;38.30;49.37;;
77729;Laerm;66894;51.570;7.000;2023-03-01T00:18:51;43.02;38.76;46.83;;
77729;Laerm;66894;51.570;7.000;2023-03-01T00:21:19;42.39;38.86;48.01;;
77729;Laerm;66894;51.570;7.000;2023-03-01T00:23:45;43.42;39.92;50.39;;
77729;Laerm;66894;51.570;7.000;2023-03-01T00:26:13;44.20;40.38;51.14;;
77729;Laerm;66894;51.570;7.000;2023-03-01T00:28:39;43.97;39.99;53.05;;
77729;Laerm;66894;51.570;7.000;2023-03-01T00:31:17;44.49;40.86;48.10;;
77729;Laerm;66894;51.570;7.000;2023-03-01T00:33:44;43.64;39.66;53.01;;
77729;Laerm;66894;51.570;7.000;2023-03-01T00:36:13;41.28;37.77;44.76;;
77729;Laerm;66894;51.570;7.000;2023-03-01T00:38:43;42.43;37.66;49.27;;
77729;Laerm;66894;51.570;7.000;2023-03-01T00:41:16;40.89;36.65;52.82;;
77729;Laerm;66894;51.570;7.000;2023-03-01T00:43:44;39.74;36.46;45.73;;
77729;Laerm;66894;51.570;7.000;2023-03-01T00:46:18;39.81;35.89;44.34;;
77729;Laerm;66894;51.570;7.000;2023-03-01T00:48:45;40.95;37.47;45.04;;
77729;Laerm;66894;51.570;7.000;2023-03-01T00:51:20;42.01;36.62;55.42;;
77729;Laerm;66894;51.570;7.000;2023-03-01T00:53:51;41.12;36.44;55.21;;
77729;Laerm;66894;51.570;7.000;2023-03-01T00:56:18;39.99;36.97;43.36;;
77729;Laerm;66894;51.570;7.000;2023-03-01T00:58:43;41.55;37.54;46.66;;
77729;Laerm;66894;51.570;7.000;2023-03-01T01:01:23;41.78;38.01;46.97;;
77729;Laerm;66894;51.570;7.000;2023-03-01T01:04:02;46.00;39.94;51.52;;
77729;Laerm;66894;51.570;7.000;2023-03-01T01:06:33;49.23;45.65;52.38;;
77729;Laerm;66894;51.570;7.000;2023-03-01T01:08:59;49.03;45.53;52.24;;
77729;Laerm;66894;51.570;7.000;2023-03-01T01:11:29;46.94;42.01;54.41;;
77729;Laerm;66894;51.570;7.000;2023-03-01T01:13:56;44.14;40.53;49.54;;
77729;Laerm;66894;51.570;7.000;2023-03-01T01:16:26;44.70;40.74;49.68;;
77729;Laerm;66894;51.570;7.000;2023-03-01T01:18:53;44.51;41.23;48.42;;
77729;Laerm;66894;51.570;7.000;2023-03-01T01:21:23;45.47;41.43;48.95;;
77729;Laerm;66894;51.570;7.000;2023-03-01T01:23:49;47.48;42.34;51.62;;
77729;Laerm;66894;51.570;7.000;2023-03-01T01:26:27;45.60;41.73;55.55;;
77729;Laerm;66894;51.570;7.000;2023-03-01T01:28:54;43.72;39.83;47.50;;
77729;Laerm;66894;51.570;7.000;2023-03-01T01:31:22;43.75;39.86;50.58;;
77729;Laerm;66894;51.570;7.000;2023-03-01T01:33:51;46.33;41.52;61.32;;
77729;Laerm;66894;51.570;7.000;2023-03-01T01:36:17;46.22;42.12;57.11;;
77729;Laerm;66894;51.570;7.000;2023-03-01T01:38:42;46.51;42.08;50.52;;
77729;Laerm;66894;51.570;7.000;2023-03-01T01:41:11;45.07;39.88;49.44;;
77729;Laerm;66894;51.570;7.000;2023-03-01T01:44:14;43.01;39.66;48.81;;
77729;Laerm;66894;51.570;7.000;2023-03-01T01:46:54;47.37;40.81;53.75;;
77729;Laerm;66894;51.570;7.000;2023-03-01T01:49:43;46.81;42.60;51.91;;
77729;Laerm;66894;51.570;7.000;2023-03-01T01:52:25;46.41;42.44;52.32;;
77729;Laerm;66894;51.570;7.000;2023-03-01T01:55:11;44.57;40.74;51.82;;
77729;Laerm;66894;51.570;7.000;2023-03-01T01:57:48;45.22;39.72;49.84;;
77729;Laerm;66894;51.570;7.000;2023-03-01T02:00:26;47.52;41.00;59.44;;
77729;Laerm;66894;51.570;7.000;2023-03-01T02:03:08;44.89;40.64;49.57;;
77729;Laerm;66894;51.570;7.000;2023-03-01T02:05:55;44.16;40.80;48.96;;
77729;Laerm;66894;51.570;7.000;2023-03-01T02:08:28;43.89;40.09;47.36;;
77729;Laerm;66894;51.570;7.000;2023-03-01T02:10:57;44.77;40.97;49.96;;
77729;Laerm;66894;51.570;7.000;2023-03-01T02:13:26;44.55;40.19;51.21;;
77729;Laerm;66894;51.570;7.000;2023-03-01T02:15:52;43.41;38.51;47.95;;
77729;Laerm;66894;51.570;7.000;2023-03-01T02:18:23;43.52;38.35;48.73;;
77729;Laerm;66894;51.570;7.000;2023-03-01T02:23:49;47.59;43.46;52.47;;
77729;Laerm;66894;51.570;7.000;2023-03-01T02:28:53;44.38;40.60;51.97;;
77729;Laerm;66894;51.570;7.000;2023-03-01T02:31:21;45.38;41.93;50.82;;
77729;Laerm;66894;51.570;7.000;2023-03-01T02:34:07;46.26;42.86;51.59;;
77729;Laerm;66894;51.570;7.000;2023-03-01T02:36:49;45.61;41.31;50.76;;
77729;Laerm;66894;51.570;7.000;2023-03-01T02:39:25;44.43;40.71;48.43;;
77729;Laerm;66894;51.570;7.000;2023-03-01T02:41:56;45.35;41.76;49.10;;
77729;Laerm;66894;51.570;7.000;2023-03-01T02:44:22;45.50;41.92;50.59;;
77729;Laerm;66894;51.570;7.000;2023-03-01T02:46:52;45.79;41.47;51.40;;
77729;Laerm;66894;51.570;7.000;2023-03-01T02:49:30;46.53;42.01;51.39;;
77729;Laerm;66894;51.570;7.000;2023-03-01T02:52:46;45.82;42.62;49.52;;
77729;Laerm;66894;51.570;7.000;2023-03-01T02:55:18;46.62;41.93;50.99;;
77729;Laerm;66894;51.570;7.000;2023-03-01T02:57:46;45.80;42.36;49.73;;
77729;Laerm;66894;51.570;7.000;2023-03-01T03:00:23;46.44;42.01;55.81;;
77729;Laerm;66894;51.570;7.000;2023-03-01T03:02:53;46.99;41.97;53.68;;
77729;Laerm;66894;51.570;7.000;2023-03-01T03:05:29;46.77;42.91;50.43;;
77729;Laerm;66894;51.570;7.000;2023-03-01T03:07:56;45.16;41.91;49.33;;
77729;Laerm;66894;51.570;7.000;2023-03-01T03:10:36;47.08;42.50;50.77;;
77729;Laerm;66894;51.570;7.000;2023-03-01T03:13:14;46.18;42.55;49.77;;
77729;Laerm;66894;51.570;7.000;2023-03-01T03:15:42;45.92;41.79;50.81;;
77729;Laerm;66894;51.570;7.000;2023-03-01T03:18:16;45.73;42.70;51.27;;
77729;Laerm;66894;51.570;7.000;2023-03-01T03:20:44;46.10;42.11;50.76;;
77729;Laerm;66894;51.570;7.000;2023-03-01T03:23:10;45.62;41.95;49.49;;
77729;Laerm;66894;51.570;7.000;2023-03-01T03:25:36;45.94;40.71;59.01;;
77729;Laerm;66894;51.570;7.000;2023-03-01T03:28:07;45.01;40.56;49.34;;
77729;Laerm;66894;51.570;7.000;2023-03-01T03:30:40;46.09;41.82;51.25;;
77729;Laerm;66894;51.570;7.000;2023-03-01T03:33:08;45.77;42.18;49.91;;
77729;Laerm;66894;51.570;7.000;2023-03-01T03:38:11;45.26;41.28;50.60;;
77729;Laerm;66894;51.570;7.000;2023-03-01T03:41:08;45.60;42.29;53.51;;
77729;Laerm;66894;51.570;7.000;2023-03-01T03:43:37;46.78;42.46;50.80;;
77729;Laerm;66894;51.570;7.000;2023-03-01T03:46:04;44.68;40.35;48.55;;
77729;Laerm;66894;51.570;7.000;2023-03-01T03:48:35;45.38;41.63;49.04;;
77729;Laerm;66894;51.570;7.000;2023-03-01T03:51:01;45.57;42.33;49.78;;
77729;Laerm;66894;51.570;7.000;2023-03-01T03:53:29;45.54;42.51;49.53;;
77729;Laerm;66894;51.570;7.000;2023-03-01T03:55:55;45.38;41.84;49.17;;
77729;Laerm;66894;51.570;7.000;2023-03-01T03:58:25;46.13;41.95;59.94;;
77729;Laerm;66894;51.570;7.000;2023-03-01T04:00:55;45.26;41.07;49.10;;
77729;Laerm;66894;51.570;7.000;2023-03-01T04:03:25;45.19;41.50;50.70;;
77729;Laerm;66894;51.570;7.000;2023-03-01T04:05:52;46.65;43.46;50.50;;
77729;Laerm;66894;51.570;7.000;2023-03-01T04:08:21;47.43;44.34;58.01;;
77729;Laerm;66894;51.570;7.000;2023-03-01T04:10:59;47.75;43.61;57.41;;
77729;Laerm;66894;51.570;7.000;2023-03-01T04:13:45;45.97;42.20;55.24;;
77729;Laerm;66894;51.570;7.000;2023-03-01T04:16:11;44.96;41.93;49.35;;
77729;Laerm;66894;51.570;7.000;2023-03-01T04:18:36;44.78;41.89;51.17;;
77729;Laerm;66894;51.570;7.000;2023-03-01T04:21:02;45.47;42.66;48.48;;
77729;Laerm;66894;51.570;7.000;2023-03-01T04:23:27;45.59;42.42;49.02;;
77729;Laerm;66894;51.570;7.000;2023-03-01T04:25:58;46.06;42.22;50.20;;
77729;Laerm;66894;51.570;7.000;2023-03-01T04:28:32;47.42;43.98;56.39;;
77729;Laerm;66894;51.570;7.000;2023-03-01T04:31:12;47.42;44.39;50.26;;
77729;Laerm;66894;51.570;7.000;2023-03-01T04:33:50;49.98;44.12;66.80;;
77729;Laerm;66894;51.570;7.000;2023-03-01T04:36:23;47.29;44.04;55.98;;
77729;Laerm;66894;51.570;7.000;2023-03-01T04:38:49;47.38;44.21;56.58;;
77729;Laerm;66894;51.570;7.000;2023-03-01T04:41:19;47.47;43.63;59.79;;
77729;Laerm;66894;51.570;7.000;2023-03-01T04:43:45;46.20;43.20;49.75;;
77729;Laerm;66894;51.570;7.000;2023-03-01T04:46:16;57.24;43.86;72.54;;
77729;Laerm;66894;51.570;7.000;2023-03-01T04:48:44;48.59;44.19;59.77;;
77729;Laerm;66894;51.570;7.000;2023-03-01T04:51:11;48.66;45.66;55.11;;
77729;Laerm;66894;51.570;7.000;2023-03-01T04:53:41;48.25;44.60;57.76;;
77729;Laerm;66894;51.570;7.000;2023-03-01T04:56:08;48.07;44.78;57.13;;
77729;Laerm;66894;51.570;7.000;2023-03-01T04:58:34;47.76;44.84;53.83;;
77729;Laerm;66894;51.570;7.000;2023-03-01T05:00:59;48.40;43.86;59.14;;
77729;Laerm;66894;51.570;7.000;2023-03-01T05:03:25;47.18;43.63;57.90;;
77729;Laerm;66894;51.570;7.000;2023-03-01T05:05:52;48.95;43.94;62.92;;
77729;Laerm;66894;51.570;7.000;2023-03-01T05:08:19;47.73;44.02;56.66;;
77729;Laerm;66894;51.570;7.000;2023-03-01T05:10:52;46.80;43.72;56.46;;
77729;Laerm;66894;51.570;7.000;2023-03-01T05:13:20;47.22;42.99;58.72;;
77729;Laerm;66894;51.570;7.000;2023-03-01T05:16:00;46.60;42.67;56.04;;
77729;Laerm;66894;51.570;7.000;2023-03-01T05:18:30;46.47;43.15;53.91;;
77729;Laerm;66894;51.570;7.000;2023-03-01T05:21:09;47.07;43.66;58.49;;
77729;Laerm;66894;51.570;7.000;2023-03-01T05:23:36;48.68;43.51;61.64;;
77729;Laerm;66894;51.570;7.000;2023-03-01T05:26:05;46.96;43.49;55.55;;
77729;Laerm;66894;51.570;7.000;2023-03-01T05:28:31;50.13;43.30;65.02;;
77729;Laerm;66894;51.570;7.000;2023-03-01T05:30:58;46.79;43.56;50.17;;
77729;Laerm;66894;51.570;7.000;2023-03-01T05:33:25;47.01;43.72;53.45;;
77729;Laerm;66894;51.570;7.000;2023-03-01T05:35:51;46.93;43.51;58.48;;
77729;Laerm;66894;51.570;7.000;2023-03-01T05:38:20;46.23;43.21;49.11;;
77729;Laerm;66894;51.570;7.000;2023-03-01T05:40:48;47.78;43.95;58.76;;
77729;Laerm;66894;51.570;7.000;2023-03-01T05:43:17;48.33;43.44;62.13;;
77729;Laerm;66894;51.570;7.000;2023-03-01T05:45:43;46.15;43.30;49.86;;
77729;Laerm;66894;51.570;7.000;2023-03-01T05:48:11;46.51;43.77;52.31;;
77729;Laerm;66894;51.570;7.000;2023-03-01T05:50:44;46.86;42.96;56.68;;
77729;Laerm;66894;51.570;7.000;2023-03-01T05:53:18;48.03;44.03;64.82;;
77729;Laerm;66894;51.570;7.000;2023-03-01T05:55:47;48.41;43.83;69.61;;
77729;Laerm;66894;51.570;7.000;2023-03-01T05:58:18;47.07;43.59;53.20;;
77729;Laerm;66894;51.570;7.000;2023-03-01T06:00:46;48.59;44.97;58.01;;
77729;Laerm;66894;51.570;7.000;2023-03-01T06:03:16;48.84;44.06;61.05;;
77729;Laerm;66894;51.570;7.000;2023-03-01T06:05:43;48.38;43.96;59.45;;
77729;Laerm;66894;51.570;7.000;2023-03-01T06:08:11;51.68;43.51;68.76;;
77729;Laerm;66894;51.570;7.000;2023-03-01T06:10:37;49.07;43.78;57.30;;
77729;Laerm;66894;51.570;7.000;2023-03-01T06:13:03;51.22;44.93;67.36;;
77729;Laerm;66894;51.570;7.000;2023-03-01T06:15:29;47.73;45.06;51.31;;
77729;Laerm;66894;51.570;7.000;2023-03-01T06:17:55;49.43;45.09;60.61;;
77729;Laerm;66894;51.570;7.000;2023-03-01T06:20:28;51.88;45.07;67.02;;
77729;Laerm;66894;51.570;7.000;2023-03-01T06:22:54;46.99;42.58;55.94;;
77729;Laerm;66894;51.570;7.000;2023-03-01T06:25:25;49.16;43.66;60.66;;
77729;Laerm;66894;51.570;7.000;2023-03-01T06:27:51;48.04;43.89;57.32;;
77729;Laerm;66894;51.570;7.000;2023-03-01T06:30:24;48.79;43.38;67.37;;
77729;Laerm;66894;51.570;7.000;2023-03-01T06:32:51;48.17;43.90;59.53;;
77729;Laerm;66894;51.570;7.000;2023-03-01T06:35:18;47.35;43.90;56.10;;
77729;Laerm;66894;51.570;7.000;2023-03-01T06:37:46;49.91;43.41;66.28;;
77729;Laerm;66894;51.570;7.000;2023-03-01T06:40:13;47.94;44.07;59.12;;
77729;Laerm;66894;51.570;7.000;2023-03-01T06:42:43;51.74;43.74;67.95;;
77729;Laerm;66894;51.570;7.000;2023-03-01T06:45:10;52.35;43.77;74.18;;
77729;Laerm;66894;51.570;7.000;2023-03-01T06:47:35;46.98;43.15;57.96;;
77729;Laerm;66894;51.570;7.000;2023-03-01T06:50:03;46.44;42.78;56.61;;
77729;Laerm;66894;51.570;7.000;2023-03-01T06:52:29;49.55;43.62;60.91;;
77729;Laerm;66894;51.570;7.000;2023-03-01T06:54:54;48.29;42.96;61.80;;
77729;Laerm;66894;51.570;7.000;2023-03-01T06:57:20;47.01;41.86;59.16;;
77729;Laerm;66894;51.570;7.000;2023-03-01T06:59:47;47.00;42.08;67.09;;
77729;Laerm;66894;51.570;7.000;2023-03-01T07:02:14;47.32;42.67;62.22;;
77729;Laerm;66894;51.570;7.000;2023-03-01T07:04:41;46.46;42.27;56.69;;
77729;Laerm;66894;51.570;7.000;2023-03-01T07:07:06;46.24;42.62;54.97;;
77729;Laerm;66894;51.570;7.000;2023-03-01T07:09:32;45.43;42.18;54.58;;
77729;Laerm;66894;51.570;7.000;2023-03-01T07:11:58;46.54;42.02;58.02;;
77729;Laerm;66894;51.570;7.000;2023-03-01T07:14:25;45.95;42.40;56.60;;
77729;Laerm;66894;51.570;7.000;2023-03-01T07:16:54;46.03;41.95;54.82;;
77729;Laerm;66894;51.570;7.000;2023-03-01T07:19:22;49.03;43.14;62.30;;
77729;Laerm;66894;51.570;7.000;2023-03-01T07:21:48;46.90;43.37;50.65;;
77729;Laerm;66894;51.570;7.000;2023-03-01T07:24:14;46.13;42.55;57.88;;
77729;Laerm;66894;51.570;7.000;2023-03-01T07:26:39;46.40;43.19;50.97;;
77729;Laerm;66894;51.570;7.000;2023-03-01T07:29:07;47.05;42.81;57.95;;
77729;Laerm;66894;51.570;7.000;2023-03-01T07:31:36;46.83;42.74;56.37;;
77729;Laerm;66894;51.570;7.000;2023-03-01T07:34:02;46.38;42.38;55.99;;
77729;Laerm;66894;51.570;7.000;2023-03-01T07:36:28;47.38;42.50;63.04;;
77729;Laerm;66894;51.570;7.000;2023-03-01T07:38:53;49.02;41.46;64.43;;
77729;Laerm;66894;51.570;7.000;2023-03-01T07:41:21;52.14;42.15;68.88;;
77729;Laerm;66894;51.570;7.000;2023-03-01T07:43:47;51.00;43.50;68.74;;
77729;Laerm;66894;51.570;7.000;2023-03-01T07:46:13;49.72;43.71;61.37;;
77729;Laerm;66894;51.570;7.000;2023-03-01T07:48:38;49.98;42.54;63.33;;
77729;Laerm;66894;51.570;7.000;2023-03-01T07:51:06;46.34;42.78;55.53;;
77729;Laerm;66894;51.570;7.000;2023-03-01T07:53:33;47.20;42.83;56.12;;
77729;Laerm;66894;51.570;7.000;2023-03-01T07:56:14;45.41;41.09;54.65;;
77729;Laerm;66894;51.570;7.000;2023-03-01T07:58:43;45.54;41.41;54.54;;
77729;Laerm;66894;51.570;7.000;2023-03-01T08:01:18;44.42;40.19;56.53;;
77729;Laerm;66894;51.570;7.000;2023-03-01T08:03:45;45.40;39.98;57.05;;
77729;Laerm;66894;51.570;7.000;2023-03-01T08:06:15;44.67;40.14;55.79;;
77729;Laerm;66894;51.570;7.000;2023-03-01T08:08:41;43.89;40.53;54.77;;
77729;Laerm;66894;51.570;7.000;2023-03-01T08:11:11;45.31;41.07;56.18;;
77729;Laerm;66894;51.570;7.000;2023-03-01T08:13:37;45.04;41.90;52.93;;
77729;Laerm;66894;51.570;7.000;2023-03-01T08:16:10;45.41;42.08;53.88;;
77729;Laerm;66894;51.570;7.000;2023-03-01T08:18:37;52.26;40.97;69.67;;
77729;Laerm;66894;51.570;7.000;2023-03-01T08:21:17;46.53;41.60;59.35;;
77729;Laerm;66894;51.570;7.000;2023-03-01T08:23:44;43.27;40.15;55.37;;
77729;Laerm;66894;51.570;7.000;2023-03-01T08:26:20;43.54;40.00;55.80;;
77729;Laerm;66894;51.570;7.000;2023-03-01T08:28:47;48.17;39.87;66.44;;
77729;Laerm;66894;51.570;7.000;2023-03-01T08:31:30;43.22;39.48;47.88;;
77729;Laerm;66894;51.570;7.000;2023-03-01T08:34:00;43.51;39.98;57.69;;
77729;Laerm;66894;51.570;7.000;2023-03-01T08:36:33;42.23;39.29;48.22;;
77729;Laerm;66894;51.570;7.000;2023-03-01T08:39:00;42.97;38.56;59.45;;
77729;Laerm;66894;51.570;7.000;2023-03-01T08:41:26;49.09;38.78;65.85;;
77729;Laerm;66894;51.570;7.000;2023-03-01T08:43:53;42.73;39.00;52.35;;
77729;Laerm;66894;51.570;7.000;2023-03-01T08:46:37;43.51;38.30;61.07;;
77729;Laerm;66894;51.570;7.000;2023-03-01T08:49:10;46.28;38.25;61.66;;
77729;Laerm;66894;51.570;7.000;2023-03-01T08:51:37;42.36;38.59;53.25;;
77729;Laerm;66894;51.570;7.000;2023-03-01T08:54:05;42.11;38.29;52.60;;
77729;Laerm;66894;51.570;7.000;2023-03-01T08:56:31;43.12;37.33;56.78;;
77729;Laerm;66894;51.570;7.000;2023-03-01T08:58:57;43.43;37.31;58.97;;
77729;Laerm;66894;51.570;7.000;2023-03-01T09:01:23;41.85;37.99;48.76;;
77729;Laerm;66894;51.570;7.000;2023-03-01T09:03:48;45.71;38.03;56.68;;
77729;Laerm;66894;51.570;7.000;2023-03-01T09:06:15;44.56;37.77;60.27;;
77729;Laerm;66894;51.570;7.000;2023-03-01T09:08:49;42.31;37.85;55.31;;
77729;Laerm;66894;51.570;7.000;2023-03-01T09:11:21;43.26;36.50;60.03;;
77729;Laerm;66894;51.570;7.000;2023-03-01T09:13:48;43.06;36.81;57.23;;
77729;Laerm;66894;51.570;7.000;2023-03-01T09:16:19;43.00;36.90;57.16;;
77729;Laerm;66894;51.570;7.000;2023-03-01T09:18:52;40.04;37.15;49.59;;
77729;Laerm;66894;51.570;7.000;2023-03-01T09:21:21;46.88;36.77;64.31;;
77729;Laerm;66894;51.570;7.000;2023-03-01T09:23:48;46.57;37.72;63.29;;
77729;Laerm;66894;51.570;7.000;2023-03-01T09:26:21;41.62;36.88;56.16;;
77729;Laerm;66894;51.570;7.000;2023-03-01T09:28:52;41.99;36.49;57.51;;
77729;Laerm;66894;51.570;7.000;2023-03-01T09:31:22;44.02;37.12;57.58;;
77729;Laerm;66894;51.570;7.000;2023-03-01T09:33:52;42.18;36.41;56.91;;
77729;Laerm;66894;51.570;7.000;2023-03-01T09:36:23;42.60;36.33;57.03;;
77729;Laerm;66894;51.570;7.000;2023-03-01T09:38:51;41.29;35.85;57.43;;
77729;Laerm;66894;51.570;7.000;2023-03-01T09:44:21;42.62;36.38;56.86;;
77729;Laerm;66894;51.570;7.000;2023-03-01T09:46:50;48.68;37.38;64.00;;
77729;Laerm;66894;51.570;7.000;2023-03-01T09:49:41;45.20;37.63;58.04;;
77729;Laerm;66894;51.570;7.000;2023-03-01T09:52:52;45.91;37.41;59.87;;
77729;Laerm;66894;51.570;7.000;2023-03-01T09:55:55;42.46;36.33;57.31;;
77729;Laerm;66894;51.570;7.000;2023-03-01T09:58:54;44.35;35.24;64.10;;
77729;Laerm;66894;51.570;7.000;2023-03-01T10:05:59;69.11;35.70;100.69;;
77729;Laerm;66894;51.570;7.000;2023-03-01T10:08:35;43.35;36.87;57.40;;
77729;Laerm;66894;51.570;7.000;2023-03-01T10:11:19;40.71;36.08;52.89;;
77729;Laerm;66894;51.570;7.000;2023-03-01T10:13:58;45.10;37.39;62.76;;
77729;Laerm;66894;51.570;7.000;2023-03-01T10:16:46;43.33;36.96;55.59;;
77729;Laerm;66894;51.570;7.000;2023-03-01T10:19:40;39.51;36.73;50.22;;
77729;Laerm;66894;51.570;7.000;2023-03-01T10:22:27;40.13;34.65;56.72;;
77729;Laerm;66894;51.570;7.000;2023-03-01T10:25:03;45.33;35.86;63.61;;
77729;Laerm;66894;51.570;7.000;2023-03-01T10:28:02;41.26;35.45;53.20;;
77729;Laerm;66894;51.570;7.000;2023-03-01T10:30:38;41.33;36.27;53.56;;
77729;Laerm;66894;51.570;7.000;2023-03-01T10:33:31;42.22;36.15;58.28;;
77729;Laerm;66894;51.570;7.000;2023-03-01T10:35:57;39.93;35.59;54.33;;
77729;Laerm;66894;51.570;7.000;2023-03-01T10:38:23;45.14;35.76;72.89;;
77729;Laerm;66894;51.570;7.000;2023-03-01T10:41:09;39.52;35.81;57.75;;
77729;Laerm;66894;51.570;7.000;2023-03-01T10:43:56;43.53;36.06;59.32;;
77729;Laerm;66894;51.570;7.000;2023-03-01T10:46:37;40.48;36.01;52.40;;
77729;Laerm;66894;51.570;7.000;2023-03-01T10:49:22;43.59;36.43;60.31;;
77729;Laerm;66894;51.570;7.000;2023-03-01T10:51:53;41.77;37.24;54.19;;
77729;Laerm;66894;51.570;7.000;2023-03-01T10:54:30;43.63;37.05;58.63;;
77729;Laerm;66894;51.570;7.000;2023-03-01T10:57:04;43.69;36.83;59.14;;
77729;Laerm;66894;51.570;7.000;2023-03-01T10:59:38;48.36;38.68;64.96;;
77729;Laerm;66894;51.570;7.000;2023-03-01T11:02:29;43.18;38.29;59.93;;
77729;Laerm;66894;51.570;7.000;2023-03-01T11:07:56;45.84;38.46;61.11;;
77729;Laerm;66894;51.570;7.000;2023-03-01T11:10:25;49.96;37.68;72.40;;
77729;Laerm;66894;51.570;7.000;2023-03-01T11:13:16;42.70;37.37;57.20;;
77729;Laerm;66894;51.570;7.000;2023-03-01T11:16:02;41.31;37.06;53.04;;
77729;Laerm;68312;53.502;10.030;2023-03-01T11:18:31;39.27;36.08;48.60;;
77729;Laerm;68312;53.502;10.030;2023-03-01T11:21:01;46.93;36.92;64.18;;
77729;Laerm;68312;53.502;10.030;2023-03-01T11:23:30;43.51;36.79;56.87;;
77729;Laerm;68312;53.502;10.030;2023-03-01T11:26:05;42.24;36.62;55.92;;
77729;Laerm;68312;53.502;10.030;2023-03-01T11:28:39;44.56;37.54;58.04;;
77729;Laerm;68312;53.502;10.030;2023-03-01T11:31:11;43.20;36.76;61.55;;
77729;Laerm;68312;53.502;10.030;2023-03-01T11:34:10;46.41;36.51;67.37;;
77729;Laerm;68312;53.502;10.030;2023-03-01T11:36:49;42.99;36.71;60.82;;
77729;Laerm;68312;53.502;10.030;2023-03-01T11:39:37;41.57;36.89;53.61;;
77729;Laerm;68312;53.502;10.030;2023-03-01T11:45:10;43.20;36.83;57.72;;
77729;Laerm;68312;53.502;10.030;2023-03-01T11:51:02;43.64;35.65;61.79;;
77729;Laerm;68312;53.502;10.030;2023-03-01T11:56:38;51.44;37.18;77.69;;
77729;Laerm;68312;53.502;10.030;2023-03-01T11:59:38;42.80;36.42;62.97;;
77729;Laerm;68312;53.502;10.030;2023-03-01T12:05:49;38.23;35.03;48.51;;
77729;Laerm;68312;53.502;10.030;2023-03-01T12:08:37;48.75;36.27;63.61;;
77729;Laerm;68312;53.502;10.030;2023-03-01T12:11:44;43.09;36.81;59.39;;
77729;Laerm;68312;53.502;10.030;2023-03-01T12:20:25;42.65;35.87;58.99;;
77729;Laerm;68312;53.502;10.030;2023-03-01T12:23:46;39.85;36.51;51.82;;
77729;Laerm;68312;53.502;10.030;2023-03-01T12:26:32;39.89;36.13;52.20;;
77729;Laerm;68312;53.502;10.030;2023-03-01T12:29:31;39.77;36.61;50.77;;
77729;Laerm;68312;53.502;10.030;2023-03-01T12:32:38;39.73;36.52;48.20;;
77729;Laerm;68312;53.502;10.030;2023-03-01T12:38:33;48.24;36.34;73.97;;
77729;Laerm;68312;53.502;10.030;2023-03-01T12:48:05;41.71;36.46;57.11;;
77729;Laerm;68312;53.502;10.030;2023-03-01T12:50:47;42.23;36.17;62.18;;
77729;Laerm;68312;53.502;10.030;2023-03-01T12:53:39;41.86;37.03;56.46;;
77729;Laerm;68312;53.502;10.030;2023-03-01T12:56:14;48.10;37.58;61.31;;
77729;Laerm;68312;53.502;10.030;2023-03-01T12:59:07;77.00;37.28;105.12;;
77729;Laerm;68312;53.502;10.030;2023-03-01T13:02:20;50.64;38.50;70.23;;
77729;Laerm;68312;53.502;10.030;2023-03-01T13:08:22;46.60;37.69;60.36;;
77729;Laerm;68312;53.502;10.030;2023-03-01T13:11:01;41.81;37.81;51.45;;
77729;Laerm;68312;53.502;10.030;2023-03-01T13:13:30;41.59;37.96;59.80;;
77729;Laerm;68312;53.502;10.030;2023-03-01T13:15:56;42.35;37.58;56.75;;
77729;Laerm;68312;53.502;10.030;2023-03-01T13:20:53;40.79;37.33;51.93;;
77729;Laerm;68312;53.502;10.030;2023-03-01T13:26:16;40.29;36.88;52.29;;
77729;Laerm;68312;53.502;10.030;2023-03-01T13:28:51;40.67;36.53;51.88;;
77729;Laerm;68312;53.502;10.030;2023-03-01T13:33:48;41.50;36.75;57.18;;
77729;Laerm;68312;53.502;10.030;2023-03-01T13:44:36;42.94;37.67;59.18;;
77729;Laerm;68312;53.502;10.030;2023-03-01T13:47:17;42.90;38.00;60.37;;
77729;Laerm;68312;53.502;10.030;2023-03-01T13:50:04;44.92;37.49;61.32;;
77729;Laerm;68312;53.502;10.030;2023-03-01T13:53:00;41.55;37.82;53.87;;
77729;Laerm;68312;53.502;10.030;2023-03-01T13:55:46;41.92;37.76;53.90;;
77729;Laerm;68312;53.502;10.030;2023-03-01T13:58:29;43.62;36.80;55.30;;
77729;Laerm;68312;53.502;10.030;2023-03-01T14:01:21;46.61;37.05;55.66;;
77729;Laerm;68312;53.502;10.030;2023-03-01T14:03:46;44.53;37.30;60.87;;
77729;Laerm;68312;53.502;10.030;2023-03-01T14:06:19;46.60;38.42;59.79;;
77729;Laerm;68312;53.502;10.030;2023-03-01T14:08:49;46.40;39.26;55.93;;
77729;Laerm;68312;53.502;10.030;2023-03-01T14:14:48;48.62;41.14;61.10;;
77729;Laerm;68312;53.502;10.030;2023-03-01T14:17:39;46.71;39.27;57.71;;
77729;Laerm;68312;53.502;10.030;2023-03-01T14:20:21;47.22;42.14;55.54;;
77729;Laerm;68312;53.502;10.030;2023-03-01T14:22:54;44.81;38.95;53.80;;
77729;Laerm;68312;53.502;10.030;2023-03-01T14:25:32;42.57;38.71;53.56;;
77729;Laerm;68312;53.502;10.030;2023-03-01T14:28:23;43.54;37.98;58.17;;
77729;Laerm;68312;53.502;10.030;2023-03-01T14:30:55;47.01;38.80;64.11;;
77729;Laerm;68312;53.502;10.030;2023-03-01T14:33:28;44.14;38.83;57.95;;
77729;Laerm;68312;53.502;10.030;2023-03-01T14:36:00;44.34;38.53;56.20;;
77729;Laerm;68312;53.502;10.030;2023-03-01T14:38:40;50.66;38.49;69.03;;
77729;Laerm;68312;53.502;10.030;2023-03-01T14:41:18;46.92;38.21;63.01;;
77729;Laerm;68312;53.502;10.030;2023-03-01T14:43:53;53.15;38.51;71.12;;
77729;Laerm;68312;53.502;10.030;2023-03-01T14:46:30;45.29;39.18;63.98;;
77729;Laerm;68312;53.502;10.030;2023-03-01T14:49:22;45.90;39.41;58.31;;
77729;Laerm;68312;53.502;10.030;2023-03-01T14:52:03;44.90;37.77;60.55;;
77729;Laerm;68312;53.502;10.030;2023-03-01T14:54:52;44.56;38.62;58.85;;
77729;Laerm;68312;53.502;10.030;2023-03-01T14:57:24;47.75;38.54;62.52;;
77729;Laerm;68312;53.502;10.030;2023-03-01T14:59:57;49.09;39.75;67.04;;
77729;Laerm;68312;53.502;10.030;2023-03-01T15:02:26;44.06;39.35;54.92;;
77729;Laerm;68312;53.502;10.030;2023-03-01T15:05:01;44.44;38.83;56.46;;
77729;Laerm;68312;53.502;10.030;2023-03-01T15:07:37;44.78;38.31;56.94;;
77729;Laerm;68312;53.502;10.030;2023-03-01T15:10:17;47.45;38.44;72.47;;
77729;Laerm;68312;53.502;10.030;2023-03-01T15:12:44;45.61;37.45;71.36;;
77729;Laerm;68312;53.502;10.030;2023-03-01T15:18:02;41.76;38.02;54.89;;
77729;Laerm;68312;53.502;10.030;2023-03-01T15:20:30;46.42;37.30;63.53;;
77729;Laerm;68312;53.502;10.030;2023-03-01T15:23:01;50.45;38.92;66.70;;
77729;Laerm;68312;53.502;10.030;2023-03-01T15:25:30;44.87;39.14;55.93;;
77729;Laerm;68312;53.502;10.030;2023-03-01T15:28:01;42.81;36.70;56.31;;
77729;Laerm;68312;53.502;10.030;2023-03-01T15:30:34;41.24;37.36;52.15;;